Time,TemperatureF,DewpointF,PressureIn,WindDirection,WindDirectionDegrees,WindSpeedMPH,WindSpeedGustMPH,Humidity,HourlyPrecipIn,Conditions,Clouds,dailyrainin,SolarRadiationWatts/m^2,SoftwareType,DateUTC
2013-06-02 00:12:00,76.0,62.0,-100.00,ENE,75,17.0,25.0,61,0.00,,,0.00,0.000000,,2013-06-02 10:12:00,
2013-06-02 00:22:00,76.0,62.0,-100.00,ENE,75,17.0,25.0,61,0.00,,,0.00,0.000000,,2013-06-02 10:22:00,
2013-06-02 00:32:00,76.0,62.0,-100.00,ENE,75,17.0,25.0,61,0.00,,,0.00,0.000000,,2013-06-02 10:32:00,
2013-06-02 00:41:00,76.0,62.0,-100.00,ENE,75,17.0,25.0,61,0.00,,,0.00,0.000000,,2013-06-02 10:41:00,
2013-06-02 01:02:00,73.0,65.0,-100.00,NNE,19,13.0,25.0,75,0.00,,,0.00,0.000000,,2013-06-02 11:02:00,
2013-06-02 01:12:00,73.0,65.0,-100.00,NNE,19,13.0,25.0,75,0.00,,,0.00,0.000000,,2013-06-02 11:12:00,
2013-06-02 01:21:00,73.0,65.0,-100.00,NNE,19,13.0,25.0,75,0.00,,,0.00,0.000000,,2013-06-02 11:21:00,
2013-06-02 01:32:00,73.0,65.0,-100.00,NNE,19,13.0,25.0,75,0.00,,,0.00,0.000000,,2013-06-02 11:32:00,
2013-06-02 01:42:00,73.0,65.0,-100.00,NNE,19,13.0,25.0,75,0.00,,,0.00,0.000000,,2013-06-02 11:42:00,
2013-06-02 02:01:00,74.0,62.0,-100.00,NE,35,14.0,22.0,67,0.00,,,0.00,0.000000,,2013-06-02 12:01:00,
2013-06-02 02:11:00,74.0,62.0,-100.00,NE,35,14.0,22.0,67,0.00,,,0.00,0.000000,,2013-06-02 12:11:00,
2013-06-02 02:21:00,74.0,62.0,-100.00,NE,35,14.0,22.0,67,0.00,,,0.00,0.000000,,2013-06-02 12:21:00,
2013-06-02 02:31:00,74.0,62.0,-100.00,NE,35,14.0,22.0,67,0.00,,,0.00,0.000000,,2013-06-02 12:31:00,
2013-06-02 02:41:00,74.0,62.0,-100.00,NE,35,14.0,22.0,67,0.00,,,0.00,0.000000,,2013-06-02 12:41:00,
2013-06-02 03:01:00,76.0,63.0,-100.00,NNE,28,13.0,23.0,65,0.00,,,0.00,0.000000,,2013-06-02 13:01:00,
2013-06-02 03:11:00,76.0,63.0,-100.00,NNE,28,13.0,23.0,65,0.00,,,0.00,0.000000,,2013-06-02 13:11:00,
2013-06-02 03:21:00,76.0,63.0,-100.00,NNE,28,13.0,23.0,65,0.00,,,0.00,0.000000,,2013-06-02 13:21:00,
2013-06-02 03:32:00,76.0,63.0,-100.00,NNE,28,13.0,23.0,65,0.00,,,0.00,0.000000,,2013-06-02 13:32:00,
2013-06-02 03:41:00,76.0,63.0,-100.00,NNE,28,13.0,23.0,65,0.00,,,0.00,0.000000,,2013-06-02 13:41:00,
2013-06-02 04:01:00,77.0,63.0,-100.00,North,7,18.0,25.0,63,0.00,,,0.00,0.000000,,2013-06-02 14:01:00,
2013-06-02 04:11:00,77.0,63.0,-100.00,North,7,18.0,25.0,63,0.00,,,0.00,0.000000,,2013-06-02 14:11:00,
2013-06-02 04:21:00,77.0,63.0,-100.00,North,7,18.0,25.0,63,0.00,,,0.00,0.000000,,2013-06-02 14:21:00,
2013-06-02 04:32:00,77.0,63.0,-100.00,North,7,18.0,25.0,63,0.00,,,0.00,0.000000,,2013-06-02 14:32:00,
2013-06-02 04:41:00,77.0,63.0,-100.00,North,7,18.0,25.0,63,0.00,,,0.00,0.000000,,2013-06-02 14:41:00,
2013-06-02 05:01:00,77.0,63.0,-100.00,NNE,30,17.0,28.0,61,0.00,,,0.00,0.000000,,2013-06-02 15:01:00,
2013-06-02 05:11:00,77.0,63.0,-100.00,NNE,30,17.0,28.0,61,0.00,,,0.00,0.000000,,2013-06-02 15:11:00,
2013-06-02 05:21:00,77.0,63.0,-100.00,NNE,30,17.0,28.0,61,0.00,,,0.00,0.000000,,2013-06-02 15:21:00,
2013-06-02 05:32:00,77.0,63.0,-100.00,NNE,30,17.0,28.0,61,0.00,,,0.00,0.000000,,2013-06-02 15:32:00,
2013-06-02 05:42:00,77.0,63.0,-100.00,NNE,30,17.0,28.0,61,0.00,,,0.00,0.000000,,2013-06-02 15:42:00,
2013-06-02 06:03:00,77.0,62.0,-100.00,North,8,15.0,28.0,60,0.00,,,0.00,0.000000,,2013-06-02 16:03:00,
2013-06-02 06:13:00,77.0,62.0,-100.00,North,8,15.0,28.0,60,0.00,,,0.00,0.000000,,2013-06-02 16:13:00,
2013-06-02 06:23:00,77.0,62.0,-100.00,North,8,15.0,28.0,60,0.00,,,0.00,0.000000,,2013-06-02 16:23:00,
2013-06-02 06:32:00,77.0,62.0,-100.00,North,8,15.0,28.0,60,0.00,,,0.00,0.000000,,2013-06-02 16:32:00,
2013-06-02 06:42:00,77.0,62.0,-100.00,North,8,15.0,28.0,60,0.00,,,0.00,0.000000,,2013-06-02 16:42:00,
2013-06-02 07:02:00,78.0,62.0,-100.00,North,1,16.0,26.0,58,0.00,,,0.00,77.000000,,2013-06-02 17:02:00,
2013-06-02 07:12:00,78.0,62.0,-100.00,North,1,16.0,26.0,58,0.00,,,0.00,77.000000,,2013-06-02 17:12:00,
2013-06-02 07:22:00,78.0,62.0,-100.00,North,1,16.0,26.0,58,0.00,,,0.00,77.000000,,2013-06-02 17:22:00,
2013-06-02 07:32:00,78.0,62.0,-100.00,North,1,16.0,26.0,58,0.00,,,0.00,77.000000,,2013-06-02 17:32:00,
2013-06-02 07:42:00,78.0,62.0,-100.00,North,1,16.0,26.0,58,0.00,,,0.00,77.000000,,2013-06-02 17:42:00,
2013-06-02 08:01:00,84.0,63.0,-100.00,NNE,14,15.0,30.0,50,0.00,,,0.00,267.000000,,2013-06-02 18:01:00,
2013-06-02 08:11:00,84.0,63.0,-100.00,NNE,14,15.0,30.0,50,0.00,,,0.00,267.000000,,2013-06-02 18:11:00,
2013-06-02 08:21:00,84.0,63.0,-100.00,NNE,14,15.0,30.0,50,0.00,,,0.00,267.000000,,2013-06-02 18:21:00,
2013-06-02 08:32:00,84.0,63.0,-100.00,NNE,14,15.0,30.0,50,0.00,,,0.00,267.000000,,2013-06-02 18:32:00,
2013-06-02 08:42:00,84.0,63.0,-100.00,NNE,14,15.0,30.0,50,0.00,,,0.00,267.000000,,2013-06-02 18:42:00,
2013-06-02 09:01:00,86.0,64.0,-100.00,NNE,33,18.0,28.0,48,0.00,,,0.00,609.000000,,2013-06-02 19:01:00,
2013-06-02 09:11:00,86.0,64.0,-100.00,NNE,33,18.0,28.0,48,0.00,,,0.00,609.000000,,2013-06-02 19:11:00,
2013-06-02 09:21:00,86.0,64.0,-100.00,NNE,33,18.0,28.0,48,0.00,,,0.00,609.000000,,2013-06-02 19:21:00,
2013-06-02 09:31:00,86.0,64.0,-100.00,NNE,33,18.0,28.0,48,0.00,,,0.00,609.000000,,2013-06-02 19:31:00,
2013-06-02 09:41:00,86.0,64.0,-100.00,NNE,33,18.0,28.0,48,0.00,,,0.00,609.000000,,2013-06-02 19:41:00,
2013-06-02 10:02:00,78.0,65.0,-100.00,East,82,20.0,31.0,65,0.00,,,0.00,608.000000,,2013-06-02 20:02:00,
2013-06-02 10:11:00,78.0,65.0,-100.00,East,82,20.0,31.0,65,0.00,,,0.00,608.000000,,2013-06-02 20:11:00,
2013-06-02 10:21:00,78.0,65.0,-100.00,East,82,20.0,31.0,65,0.00,,,0.00,608.000000,,2013-06-02 20:21:00,
2013-06-02 10:31:00,78.0,65.0,-100.00,East,82,20.0,31.0,65,0.00,,,0.00,608.000000,,2013-06-02 20:31:00,
2013-06-02 10:42:00,78.0,65.0,-100.00,East,82,20.0,31.0,65,0.00,,,0.00,608.000000,,2013-06-02 20:42:00,
2013-06-02 11:01:00,78.0,67.0,-100.00,NE,55,19.0,31.0,70,0.00,,,0.00,517.000000,,2013-06-02 21:01:00,
2013-06-02 11:11:00,78.0,67.0,-100.00,NE,55,19.0,31.0,70,0.00,,,0.00,517.000000,,2013-06-02 21:11:00,
2013-06-02 11:21:00,78.0,67.0,-100.00,NE,55,19.0,31.0,70,0.00,,,0.00,517.000000,,2013-06-02 21:21:00,
2013-06-02 11:33:00,78.0,67.0,-100.00,NE,55,19.0,31.0,70,0.00,,,0.00,517.000000,,2013-06-02 21:33:00,
2013-06-02 11:42:00,78.0,67.0,-100.00,NE,55,19.0,31.0,70,0.00,,,0.00,517.000000,,2013-06-02 21:42:00,
2013-06-02 12:03:00,81.0,65.0,-100.00,NE,50,20.0,29.0,58,0.00,,,0.00,619.000000,,2013-06-02 22:03:00,
2013-06-02 12:12:00,81.0,65.0,-100.00,NE,50,20.0,29.0,58,0.00,,,0.00,619.000000,,2013-06-02 22:12:00,
2013-06-02 12:23:00,81.0,65.0,-100.00,NE,50,20.0,29.0,58,0.00,,,0.00,619.000000,,2013-06-02 22:23:00,
2013-06-02 12:33:00,81.0,65.0,-100.00,NE,50,20.0,29.0,58,0.00,,,0.00,619.000000,,2013-06-02 22:33:00,
2013-06-02 12:42:00,81.0,65.0,-100.00,NE,50,20.0,29.0,58,0.00,,,0.00,619.000000,,2013-06-02 22:42:00,
2013-06-02 13:02:00,82.0,65.0,-100.00,ENE,72,21.0,30.0,56,0.00,,,0.00,531.000000,,2013-06-02 23:02:00,
2013-06-02 13:12:00,82.0,65.0,-100.00,ENE,72,21.0,30.0,56,0.00,,,0.00,531.000000,,2013-06-02 23:12:00,
2013-06-02 13:22:00,82.0,65.0,-100.00,ENE,72,21.0,30.0,56,0.00,,,0.00,531.000000,,2013-06-02 23:22:00,
2013-06-02 13:32:00,82.0,65.0,-100.00,ENE,72,21.0,30.0,56,0.00,,,0.00,531.000000,,2013-06-02 23:32:00,
2013-06-02 13:42:00,82.0,65.0,-100.00,ENE,72,21.0,30.0,56,0.00,,,0.00,531.000000,,2013-06-02 23:42:00,
2013-06-02 14:11:00,82.0,66.0,-100.00,ENE,61,21.0,34.0,58,0.00,,,-99.99,560.000000,,2013-06-03 00:11:00,
2013-06-02 14:21:00,82.0,66.0,-100.00,ENE,61,21.0,34.0,58,0.00,,,-99.99,560.000000,,2013-06-03 00:21:00,
2013-06-02 14:32:00,82.0,66.0,-100.00,ENE,61,21.0,34.0,58,0.00,,,-99.99,560.000000,,2013-06-03 00:32:00,
2013-06-02 14:42:00,82.0,66.0,-100.00,ENE,61,21.0,34.0,58,0.00,,,-99.99,560.000000,,2013-06-03 00:42:00,
2013-06-02 15:01:00,84.0,64.0,-100.00,NE,52,20.0,29.0,51,0.00,,,0.00,606.000000,,2013-06-03 01:01:00,
2013-06-02 15:11:00,84.0,64.0,-100.00,NE,52,20.0,29.0,51,0.00,,,0.00,606.000000,,2013-06-03 01:11:00,
2013-06-02 15:21:00,84.0,64.0,-100.00,NE,52,20.0,29.0,51,0.00,,,0.00,606.000000,,2013-06-03 01:21:00,
2013-06-02 15:32:00,84.0,64.0,-100.00,NE,52,20.0,29.0,51,0.00,,,0.00,606.000000,,2013-06-03 01:32:00,
2013-06-02 15:42:00,84.0,64.0,-100.00,NE,52,20.0,29.0,51,0.00,,,0.00,606.000000,,2013-06-03 01:42:00,
2013-06-02 16:02:00,84.0,63.0,-100.00,ENE,58,20.0,30.0,49,0.00,,,0.00,619.000000,,2013-06-03 02:02:00,
2013-06-02 16:12:00,84.0,63.0,-100.00,ENE,58,20.0,30.0,49,0.00,,,0.00,619.000000,,2013-06-03 02:12:00,
2013-06-02 16:22:00,84.0,63.0,-100.00,ENE,58,20.0,30.0,49,0.00,,,0.00,619.000000,,2013-06-03 02:22:00,
2013-06-02 16:32:00,84.0,63.0,-100.00,ENE,58,20.0,30.0,49,0.00,,,0.00,619.000000,,2013-06-03 02:32:00,
2013-06-02 16:42:00,84.0,63.0,-100.00,ENE,58,20.0,30.0,49,0.00,,,0.00,619.000000,,2013-06-03 02:42:00,
2013-06-02 17:02:00,78.0,63.0,-100.00,ENE,67,23.0,33.0,60,0.00,,,0.00,316.000000,,2013-06-03 03:02:00,
2013-06-02 17:12:00,78.0,63.0,-100.00,ENE,67,23.0,33.0,60,0.00,,,0.00,316.000000,,2013-06-03 03:12:00,
2013-06-02 17:22:00,78.0,63.0,-100.00,ENE,67,23.0,33.0,60,0.00,,,0.00,316.000000,,2013-06-03 03:22:00,
2013-06-02 17:33:00,78.0,63.0,-100.00,ENE,67,23.0,33.0,60,0.00,,,0.00,316.000000,,2013-06-03 03:33:00,
2013-06-02 17:43:00,78.0,63.0,-100.00,ENE,67,23.0,33.0,60,0.00,,,0.00,316.000000,,2013-06-03 03:43:00,
2013-06-02 18:03:00,80.0,64.0,-100.00,NE,46,19.0,33.0,58,0.00,,,0.00,159.000000,,2013-06-03 04:03:00,
2013-06-02 18:12:00,80.0,64.0,-100.00,NE,46,19.0,33.0,58,0.00,,,0.00,159.000000,,2013-06-03 04:12:00,
2013-06-02 18:23:00,80.0,64.0,-100.00,NE,46,19.0,33.0,58,0.00,,,0.00,159.000000,,2013-06-03 04:23:00,
2013-06-02 18:33:00,80.0,64.0,-100.00,NE,46,19.0,33.0,58,0.00,,,0.00,159.000000,,2013-06-03 04:33:00,
2013-06-02 18:42:00,80.0,64.0,-100.00,NE,46,19.0,33.0,58,0.00,,,0.00,159.000000,,2013-06-03 04:42:00,
2013-06-02 19:02:00,77.0,62.0,-100.00,NE,46,16.0,27.0,60,0.00,,,0.00,55.000000,,2013-06-03 05:02:00,
2013-06-02 19:12:00,77.0,62.0,-100.00,NE,46,16.0,27.0,60,0.00,,,0.00,55.000000,,2013-06-03 05:12:00,
2013-06-02 19:22:00,77.0,62.0,-100.00,NE,46,16.0,27.0,60,0.00,,,0.00,55.000000,,2013-06-03 05:22:00,
2013-06-02 19:32:00,77.0,62.0,-100.00,NE,46,16.0,27.0,60,0.00,,,0.00,55.000000,,2013-06-03 05:32:00,
2013-06-02 19:42:00,77.0,62.0,-100.00,NE,46,16.0,27.0,60,0.00,,,0.00,55.000000,,2013-06-03 05:42:00,
2013-06-02 20:02:00,77.0,62.0,-100.00,NE,44,18.0,28.0,60,0.00,,,0.00,1.000000,,2013-06-03 06:02:00,
2013-06-02 20:12:00,77.0,62.0,-100.00,NE,44,18.0,28.0,60,0.00,,,0.00,1.000000,,2013-06-03 06:12:00,
2013-06-02 20:22:00,77.0,62.0,-100.00,NE,44,18.0,28.0,60,0.00,,,0.00,1.000000,,2013-06-03 06:22:00,
2013-06-02 20:32:00,77.0,62.0,-100.00,NE,44,18.0,28.0,60,0.00,,,0.00,1.000000,,2013-06-03 06:32:00,
2013-06-02 20:41:00,77.0,62.0,-100.00,NE,44,18.0,28.0,60,0.00,,,0.00,1.000000,,2013-06-03 06:41:00,
2013-06-02 21:12:00,75.0,61.0,-100.00,NE,37,17.0,27.0,61,0.00,,,0.00,0.000000,,2013-06-03 07:12:00,
2013-06-02 21:22:00,75.0,61.0,-100.00,NE,37,17.0,27.0,61,0.00,,,0.00,0.000000,,2013-06-03 07:22:00,
2013-06-02 21:32:00,75.0,61.0,-100.00,NE,37,17.0,27.0,61,0.00,,,0.00,0.000000,,2013-06-03 07:32:00,
2013-06-02 21:42:00,75.0,61.0,-100.00,NE,37,17.0,27.0,61,0.00,,,0.00,0.000000,,2013-06-03 07:42:00,
2013-06-02 22:02:00,77.0,61.0,-100.00,NNE,15,19.0,32.0,57,0.00,,,0.00,0.000000,,2013-06-03 08:02:00,
2013-06-02 22:12:00,77.0,61.0,-100.00,NNE,15,19.0,32.0,57,0.00,,,0.00,0.000000,,2013-06-03 08:12:00,
2013-06-02 22:22:00,77.0,61.0,-100.00,NNE,15,19.0,32.0,57,0.00,,,0.00,0.000000,,2013-06-03 08:22:00,
2013-06-02 22:32:00,77.0,61.0,-100.00,NNE,15,19.0,32.0,57,0.00,,,0.00,0.000000,,2013-06-03 08:32:00,
2013-06-02 22:42:00,77.0,61.0,-100.00,NNE,15,19.0,32.0,57,0.00,,,0.00,0.000000,,2013-06-03 08:42:00,
2013-06-02 23:02:00,78.0,58.0,-100.00,NNE,32,16.0,32.0,51,0.00,,,0.00,0.000000,,2013-06-03 09:02:00,
2013-06-02 23:12:00,78.0,58.0,-100.00,NNE,32,16.0,32.0,51,0.00,,,0.00,0.000000,,2013-06-03 09:12:00,
2013-06-02 23:22:00,78.0,58.0,-100.00,NNE,32,16.0,32.0,51,0.00,,,0.00,0.000000,,2013-06-03 09:22:00,
2013-06-02 23:33:00,78.0,58.0,-100.00,NNE,32,16.0,32.0,51,0.00,,,0.00,0.000000,,2013-06-03 09:33:00,
2013-06-02 23:42:00,78.0,58.0,-100.00,NNE,32,16.0,32.0,51,0.00,,,0.00,0.000000,,2013-06-03 09:42:00,